Time;durP1;ratioP1;P1;durP2;ratioP2;P2;SDS_P1;SDS_P2;PMS_P1;PMS_P2;Temp;Humidity;BMP_temperature;BMP_pressure;BME280_temperature;BME280_humidity;BME280_pressure;Samples;Min_cycle;Max_cycle;Signal;HPM_P1;HPM_P2
2023/09/15 00:02:25;;;;;;;14.67;7.87;;;;;;;20.51;76.46;95006.19;4783825;29;20487;-69
2023/09/15 00:04:51;;;;;;;10.43;7.13;;;;;;;20.48;75.93;95000.59;4784846;29;20185;-69
2023/09/15 00:07:17;;;;;;;9.38;7.35;;;;;;;20.44;76.25;95008.34;4784809;29;20181;-69
2023/09/15 00:09:42;;;;;;;9.20;7.72;;;;;;;20.42;76.04;95007.81;4784630;30;20184;-69
2023/09/15 00:12:08;;;;;;;10.30;6.88;;;;;;;20.41;76.23;95019.56;4784576;29;20235;-69
2023/09/15 00:14:38;;;;;;;10.40;6.78;;;;;;;20.38;76.66;95020.13;4784577;29;20252;-69
2023/09/15 00:17:04;;;;;;;12.45;7.55;;;;;;;20.34;76.27;95017.16;4784662;30;20184;-69
2023/09/15 00:19:29;;;;;;;9.23;6.45;;;;;;;20.33;76.68;95015.53;4784630;29;20237;-69
2023/09/15 00:21:55;;;;;;;13.20;8.13;;;;;;;20.05;77.20;94994.69;4783737;30;20440;-69
2023/09/15 00:24:21;;;;;;;10.07;6.75;;;;;;;20.23;76.71;95017.44;4784699;30;20181;-69
2023/09/15 00:26:48;;;;;;;12.18;6.55;;;;;;;20.27;76.55;95016.59;4782995;30;20614;-69
2023/09/15 00:29:14;;;;;;;10.20;7.00;;;;;;;20.29;76.51;95019.03;4784724;29;20636;-69
2023/09/15 00:31:40;;;;;;;11.80;8.10;;;;;;;20.15;76.78;95005.38;4784291;29;20966;-69
2023/09/15 00:34:06;;;;;;;11.57;7.47;;;;;;;20.21;76.55;95011.53;4784589;30;20201;-69
2023/09/15 00:36:32;;;;;;;12.30;7.10;;;;;;;20.20;76.48;95015.28;4784767;29;20575;-69
2023/09/15 00:38:58;;;;;;;10.20;8.70;;;;;;;20.24;76.44;95016.34;4796766;29;20203;-69
2023/09/15 00:41:24;;;;;;;11.30;7.60;;;;;;;20.30;76.09;95008.06;4802511;29;20259;-70
2023/09/15 00:43:50;;;;;;;13.05;7.82;;;;;;;20.32;75.77;95005.13;4802533;29;20263;-69
2023/09/15 00:46:17;;;;;;;7.97;6.88;;;;;;;20.35;75.93;95012.63;4802240;29;20615;-69
2023/09/15 00:48:45;;;;;;;11.23;7.60;;;;;;;20.36;76.01;95014.22;4802347;29;20575;-70
2023/09/15 00:51:11;;;;;;;11.50;7.28;;;;;;;20.38;75.74;95011.31;4802404;29;20618;-69
2023/09/15 00:53:38;;;;;;;14.55;7.47;;;;;;;20.29;76.45;95011.00;4784714;29;20425;-69
2023/09/15 00:56:05;;;;;;;15.73;7.07;;;;;;;20.08;76.60;94993.34;4787772;29;20634;-69
2023/09/15 00:58:31;;;;;;;8.00;6.75;;;;;;;20.24;76.48;95017.13;4787685;30;20176;-69
2023/09/15 01:00:56;;;;;;;9.23;7.03;;;;;;;20.24;76.28;95024.34;4787718;29;20176;-69
2023/09/15 01:03:22;;;;;;;9.85;7.50;;;;;;;20.26;76.42;95022.22;4787528;29;20637;-69
2023/09/15 01:05:48;;;;;;;9.50;7.13;;;;;;;20.28;75.95;95026.25;4787512;29;20645;-69
2023/09/15 01:08:13;;;;;;;13.68;8.35;;;;;;;20.29;75.98;95027.84;4787491;29;20176;-69
2023/09/15 01:10:39;;;;;;;14.90;7.60;;;;;;;20.31;75.82;95032.94;4787544;29;20289;-69
2023/09/15 01:13:05;;;;;;;10.73;7.45;;;;;;;20.28;75.75;95034.25;4787276;29;20228;-70
2023/09/15 01:15:43;;;;;;;14.07;8.25;;;;;;;20.26;76.24;95041.75;4787474;29;20181;-69
2023/09/15 01:18:37;;;;;;;11.43;7.53;;;;;;;20.26;76.29;95043.59;4787379;29;20180;-69
2023/09/15 01:21:45;;;;;;;9.68;8.48;;;;;;;20.24;76.40;95038.53;4787367;29;20208;-69
2023/09/15 01:24:50;;;;;;;11.93;8.10;;;;;;;20.22;76.81;95045.22;4749914;29;20272;-69
2023/09/15 01:27:34;;;;;;;12.10;7.68;;;;;;;20.22;76.42;95045.22;4785807;29;20295;-69
2023/09/15 01:30:02;;;;;;;16.15;7.63;;;;;;;20.17;76.65;95047.88;4787179;29;20582;-69
2023/09/15 01:32:29;;;;;;;13.27;8.07;;;;;;;20.15;76.99;95040.13;4787039;29;20276;-69
2023/09/15 01:34:54;;;;;;;11.55;8.38;;;;;;;19.94;77.23;95019.78;4786416;30;20550;-69
2023/09/15 01:37:20;;;;;;;11.50;7.60;;;;;;;20.06;77.19;95025.69;4786819;29;20673;-69
2023/09/15 01:39:47;;;;;;;10.77;7.78;;;;;;;20.05;76.99;95039.31;4787000;29;20545;-69
2023/09/15 01:42:13;;;;;;;11.63;8.45;;;;;;;20.03;76.96;95038.78;4786960;30;20180;-70
2023/09/15 01:44:38;;;;;;;10.32;7.30;;;;;;;20.01;77.12;95035.56;4786735;30;20657;-70
2023/09/15 01:47:08;;;;;;;12.65;7.70;;;;;;;19.97;77.46;95040.66;4785707;29;20179;-70
2023/09/15 01:49:34;;;;;;;11.70;7.60;;;;;;;19.98;77.21;95043.03;4804775;29;20179;-69
2023/09/15 01:52:01;;;;;;;12.43;7.43;;;;;;;19.87;77.18;95033.41;4804730;29;20352;-70
2023/09/15 01:54:26;;;;;;;11.43;8.27;;;;;;;19.80;77.37;95053.44;4804581;29;20187;-70
2023/09/15 01:56:52;;;;;;;10.27;7.70;;;;;;;19.78;77.78;95052.91;4804656;29;20572;-70
2023/09/15 01:59:17;;;;;;;16.00;8.27;;;;;;;19.79;77.50;95055.31;4804800;29;20328;-70
2023/09/15 02:01:43;;;;;;;12.52;7.57;;;;;;;19.75;77.96;95046.19;4804736;29;20614;-70
2023/09/15 02:04:09;;;;;;;10.40;6.97;;;;;;;19.71;78.01;95053.16;4804661;29;20188;-70
2023/09/15 02:06:35;;;;;;;10.57;7.65;;;;;;;19.66;78.34;95055.78;4803717;29;20675;-70
2023/09/15 02:09:00;;;;;;;12.77;8.43;;;;;;;19.64;78.21;95047.22;4804412;29;20325;-70
2023/09/15 02:11:26;;;;;;;18.80;8.07;;;;;;;19.53;78.67;95050.94;4804130;29;20680;-70
2023/09/15 02:13:51;;;;;;;10.38;7.95;;;;;;;19.54;78.71;95057.91;4804234;29;20191;-70
2023/09/15 02:16:16;;;;;;;12.80;8.63;;;;;;;19.51;78.77;95051.19;4804594;29;20186;-70
2023/09/15 02:18:42;;;;;;;19.25;9.68;;;;;;;;;;4804311;29;20183;-70
2023/09/15 02:21:08;;;;;;;10.25;7.85;;;;;;;19.47;78.94;95065.28;4804106;29;20198;-70
2023/09/15 02:23:34;;;;;;;11.60;8.30;;;;;;;19.43;78.92;95067.69;4804100;29;20696;-70
2023/09/15 02:26:03;;;;;;;13.95;8.40;;;;;;;19.36;79.39;95061.00;4804251;29;20184;-70
2023/09/15 02:28:29;;;;;;;13.57;8.18;;;;;;;19.28;79.77;95056.94;4804200;29;20666;-70
2023/09/15 02:30:55;;;;;;;9.85;7.55;;;;;;;19.27;80.07;95070.56;4804208;29;20300;-70
2023/09/15 02:33:22;;;;;;;13.77;7.40;;;;;;;19.23;80.16;95063.06;4804061;29;20345;-70
2023/09/15 02:35:47;;;;;;;13.77;8.73;;;;;;;19.27;80.61;95075.91;4803273;29;20442;-70
2023/09/15 02:38:13;;;;;;;12.15;8.75;;;;;;;19.32;79.89;95067.91;4803899;29;20180;-70
2023/09/15 02:40:38;;;;;;;15.40;8.50;;;;;;;19.34;80.04;95071.13;4803631;29;20183;-70
2023/09/15 02:43:03;;;;;;;13.60;9.20;;;;;;;19.40;79.70;95064.72;4803797;29;20264;-70
2023/09/15 02:45:29;;;;;;;10.73;7.55;;;;;;;19.44;79.61;95068.50;4803803;29;20188;-70
2023/09/15 02:47:54;;;;;;;11.10;8.13;;;;;;;19.45;79.24;95075.44;4803833;29;20256;-70
2023/09/15 02:50:20;;;;;;;13.40;8.52;;;;;;;19.37;79.77;95073.28;4793915;29;20226;-70
2023/09/15 02:52:45;;;;;;;14.95;8.30;;;;;;;19.38;79.87;95073.00;4785627;29;20193;-70
2023/09/15 02:55:10;;;;;;;13.90;8.15;;;;;;;19.35;79.87;95076.19;4785674;29;20272;-70
2023/09/15 02:57:36;;;;;;;10.80;7.72;;;;;;;19.31;80.38;95076.97;4785751;29;20185;-70
2023/09/15 03:00:01;;;;;;;16.17;8.50;;;;;;;19.35;80.42;95078.88;4785740;29;20231;-70
2023/09/15 03:02:26;;;;;;;16.20;9.18;;;;;;;19.40;80.47;95086.09;4785733;29;20176;-70
2023/09/15 03:04:52;;;;;;;17.13;9.73;;;;;;;19.46;80.04;95079.72;4785510;29;20652;-70
2023/09/15 03:07:17;;;;;;;12.73;8.35;;;;;;;19.51;79.84;95082.44;4785471;29;20184;-70
2023/09/15 03:09:44;;;;;;;11.27;8.23;;;;;;;19.51;79.71;95083.25;4796559;29;20180;-70
2023/09/15 03:12:10;;;;;;;11.77;8.13;;;;;;;19.51;79.94;95093.13;4802943;29;20263;-70
2023/09/15 03:14:35;;;;;;;15.30;8.90;;;;;;;19.50;79.79;95086.97;4802549;29;20432;-70
2023/09/15 03:17:00;;;;;;;11.75;8.10;;;;;;;19.53;79.45;95093.69;4802974;29;20180;-70
2023/09/15 03:19:26;;;;;;;13.40;8.70;;;;;;;19.54;79.39;95101.44;4803317;29;20543;-70
2023/09/15 03:21:52;;;;;;;10.20;8.25;;;;;;;19.51;79.68;95093.94;4803295;29;20184;-70
2023/09/15 03:24:18;;;;;;;14.57;7.65;;;;;;;19.52;79.63;95100.06;4803119;29;20184;-70
2023/09/15 03:26:43;;;;;;;12.35;8.80;;;;;;;19.52;79.57;95102.75;4802989;29;20184;-70
2023/09/15 03:29:09;;;;;;;10.27;7.40;;;;;;;19.50;79.72;95096.84;4803419;29;20187;-70
2023/09/15 03:31:34;;;;;;;11.90;8.50;;;;;;;19.53;79.69;95105.16;4803303;29;20214;-70
2023/09/15 03:34:00;;;;;;;15.82;9.50;;;;;;;19.37;79.37;95086.63;4803390;29;20180;-69
2023/09/15 03:36:29;;;;;;;13.90;8.70;;;;;;;19.44;80.16;95103.22;4803511;29;20179;-70
2023/09/15 03:38:55;;;;;;;12.15;9.02;;;;;;;19.40;80.11;95105.59;4803176;29;20184;-70
2023/09/15 03:41:20;;;;;;;16.38;8.35;;;;;;;19.38;80.21;95112.25;4802712;29;20244;-70
2023/09/15 03:43:45;;;;;;;14.65;8.70;;;;;;;19.33;80.39;95109.56;4803209;29;20183;-70
2023/09/15 03:46:11;;;;;;;18.08;8.27;;;;;;;19.32;80.61;95107.94;4803205;29;20736;-69
2023/09/15 03:48:36;;;;;;;13.85;9.45;;;;;;;19.27;80.22;95103.41;4802959;29;20182;-70
2023/09/15 03:51:02;;;;;;;10.25;8.48;;;;;;;19.31;80.07;95111.69;4802900;29;20256;-69
2023/09/15 03:53:27;;;;;;;11.63;8.30;;;;;;;19.27;79.70;95110.59;4802911;29;20187;-69
2023/09/15 03:55:53;;;;;;;13.88;7.93;;;;;;;19.23;79.28;95110.31;4789441;29;20177;-70
2023/09/15 03:58:18;;;;;;;11.57;6.95;;;;;;;18.99;79.64;95111.75;4784847;29;20189;-70
2023/09/15 04:00:43;;;;;;;15.47;8.57;;;;;;;18.61;80.50;95091.47;4784330;30;20504;-69
2023/09/15 04:03:09;;;;;;;25.92;8.05;;;;;;;18.75;80.92;95124.66;4785041;29;20191;-70
2023/09/15 04:05:34;;;;;;;11.25;6.80;;;;;;;18.78;80.15;95106.25;4785015;30;20198;-69
2023/09/15 04:08:00;;;;;;;11.48;7.07;;;;;;;18.78;80.02;95108.13;4784781;29;20259;-70
2023/09/15 04:10:25;;;;;;;12.82;7.55;;;;;;;18.86;79.67;95110.31;4784386;29;20204;-70
2023/09/15 04:12:51;;;;;;;11.70;6.82;;;;;;;18.94;79.13;95101.84;4784374;29;20674;-70
2023/09/15 04:15:16;;;;;;;14.57;7.28;;;;;;;19.05;78.84;95127.53;4785009;29;20699;-70
2023/09/15 04:17:42;;;;;;;12.48;6.75;;;;;;;18.94;79.11;95125.06;4784827;29;20187;-70
2023/09/15 04:20:09;;;;;;;26.67;8.00;;;;;;;18.98;79.35;95134.97;4784823;29;20307;-69
2023/09/15 04:22:39;;;;;;;13.90;7.47;;;;;;;18.98;78.65;95126.97;4784541;29;20245;-69
2023/09/15 04:25:05;;;;;;;13.88;7.13;;;;;;;19.08;78.70;95132.38;4784420;29;20269;-70
2023/09/15 04:27:34;;;;;;;27.30;7.70;;;;;;;19.17;78.29;95138.84;4784441;29;20249;-68
2023/09/15 04:30:00;;;;;;;17.40;6.95;;;;;;;19.29;77.88;95143.16;4786702;29;20188;-69
2023/09/15 04:32:26;;;;;;;19.27;7.68;;;;;;;19.31;77.71;95139.19;4788356;29;20572;-70
2023/09/15 04:34:52;;;;;;;8.85;6.88;;;;;;;19.40;77.31;95150.19;4787917;29;20195;-70
2023/09/15 04:37:21;;;;;;;14.00;7.70;;;;;;;19.35;77.48;95139.47;4786753;29;20185;-70
2023/09/15 04:39:49;;;;;;;15.25;7.40;;;;;;;19.23;77.64;95129.78;4786117;29;20208;-70
2023/09/15 04:42:15;;;;;;;14.07;8.27;;;;;;;19.38;77.74;95152.28;4786598;29;20191;-70
2023/09/15 04:44:41;;;;;;;15.60;7.20;;;;;;;19.44;77.48;95149.41;4787284;29;20220;-70
2023/09/15 04:47:06;;;;;;;13.88;7.22;;;;;;;;;;4787576;29;20212;-70
2023/09/15 04:49:32;;;;;;;13.95;7.18;;;;;;;19.63;76.85;95151.69;4789303;29;20191;-70
2023/09/15 04:51:58;;;;;;;10.95;7.22;;;;;;;19.73;76.95;95149.84;4786671;29;20220;-70
2023/09/15 04:54:25;;;;;;;13.75;6.97;;;;;;;19.86;76.49;95162.75;4786315;29;20228;-70
2023/09/15 04:56:50;;;;;;;14.40;6.50;;;;;;;20.03;76.05;95162.53;4786506;29;20542;-70
2023/09/15 04:59:16;;;;;;;16.52;7.72;;;;;;;20.23;75.34;95157.25;4786792;29;20214;-70
2023/09/15 05:01:42;;;;;;;19.52;8.18;;;;;;;20.45;74.40;95151.72;4787109;30;20246;-70
2023/09/15 05:04:08;;;;;;;11.00;7.22;;;;;;;20.80;73.21;95142.13;4787484;29;20242;-70
2023/09/15 05:06:34;;;;;;;11.07;6.38;;;;;;;21.59;71.44;95160.28;4787886;29;20180;-70
2023/09/15 05:08:59;;;;;;;11.98;6.10;;;;;;;22.70;68.55;95167.03;4787706;29;20187;-70
2023/09/15 05:11:24;;;;;;;12.65;6.05;;;;;;;23.68;64.49;95172.97;4787754;30;20213;-71
2023/09/15 05:13:50;;;;;;;11.70;5.70;;;;;;;24.63;61.65;95179.34;4771511;30;20211;-70
2023/09/15 05:16:17;;;;;;;14.02;6.18;;;;;;;25.78;58.09;95175.88;4787617;29;20188;-70
2023/09/15 05:18:42;;;;;;;9.30;5.15;;;;;;;26.89;54.17;95180.09;4787653;29;20188;-70
2023/09/15 05:21:08;;;;;;;15.05;5.22;;;;;;;27.87;51.56;95177.41;4787608;29;20181;-70
2023/09/15 05:23:33;;;;;;;9.38;5.47;;;;;;;28.60;49.35;95184.06;4787427;29;20180;-70
2023/09/15 05:25:59;;;;;;;12.90;5.75;;;;;;;28.66;48.77;95175.47;4787673;29;20184;-70
2023/09/15 05:28:24;;;;;;;12.50;5.88;;;;;;;28.96;48.16;95189.22;4787302;29;20193;-70
2023/09/15 05:30:49;;;;;;;11.82;5.70;;;;;;;29.23;47.75;95189.69;4787450;30;20285;-70
2023/09/15 05:33:16;;;;;;;7.78;5.50;;;;;;;29.84;46.55;95186.91;4787470;29;20188;-70
2023/09/15 05:35:42;;;;;;;9.27;5.97;;;;;;;30.60;44.71;95189.63;4787372;29;20267;-71
2023/09/15 05:38:07;;;;;;;9.48;5.80;;;;;;;31.08;43.02;95183.72;4787489;29;21808;-70
2023/09/15 05:40:33;;;;;;;8.43;4.97;;;;;;;31.26;42.77;95189.81;4787268;29;20672;-71
2023/09/15 05:42:58;;;;;;;10.48;5.80;;;;;;;31.38;43.04;95189.88;4787163;29;20307;-71
2023/09/15 05:45:24;;;;;;;11.05;5.63;;;;;;;31.86;41.88;95194.69;4787179;29;20185;-70
2023/09/15 05:47:49;;;;;;;10.82;5.45;;;;;;;32.33;41.47;95183.41;4770997;29;20670;-70
2023/09/15 05:50:15;;;;;;;13.90;6.10;;;;;;;32.97;40.06;95199.81;4772608;30;20196;-71
2023/09/15 05:52:40;;;;;;;12.98;6.80;;;;;;;33.37;38.98;95196.34;4787136;30;20193;-71
2023/09/15 05:55:06;;;;;;;18.02;6.75;;;;;;;33.90;37.59;95182.22;4786756;29;20192;-71
2023/09/15 05:57:32;;;;;;;16.38;6.10;;;;;;;34.65;36.61;95195.00;4787047;30;20199;-71
2023/09/15 05:59:57;;;;;;;12.32;5.22;;;;;;;35.33;35.30;95198.09;4785146;29;20192;-71
2023/09/15 06:02:23;;;;;;;12.18;6.15;;;;;;;35.86;33.89;95201.13;4795704;29;20549;-71
2023/09/15 06:04:50;;;;;;;10.02;6.18;;;;;;;36.16;33.61;95201.25;4793542;29;20253;-70
2023/09/15 06:07:17;;;;;;;9.38;5.45;;;;;;;36.40;32.83;95200.13;4793784;29;20648;-71
2023/09/15 06:09:43;;;;;;;9.20;5.40;;;;;;;36.81;31.93;95204.72;4792720;29;20220;-71
2023/09/15 06:12:08;;;;;;;9.20;5.03;;;;;;;36.82;31.84;95202.75;4793282;29;20248;-71
2023/09/15 06:14:35;;;;;;;13.80;8.27;;;;;;;37.22;31.46;95202.16;4794917;29;20176;-71
2023/09/15 06:17:02;;;;;;;18.13;10.70;;;;;;;37.49;31.07;95200.13;4793962;29;20202;-71
2023/09/15 06:19:28;;;;;;;9.02;8.02;;;;;;;37.50;30.82;95194.25;4788685;29;20188;-71
2023/09/15 06:21:53;;;;;;;10.50;6.38;;;;;;;37.44;30.57;95204.03;4794639;29;20177;-71
2023/09/15 06:24:19;;;;;;;10.15;8.32;;;;;;;37.21;31.11;95195.88;4791529;29;20196;-71
2023/09/15 06:26:44;;;;;;;17.63;10.55;;;;;;;37.11;31.32;95195.69;4792899;29;20263;-71
2023/09/15 06:29:12;;;;;;;12.82;6.93;;;;;;;37.25;31.65;95201.41;4789443;29;20188;-71
2023/09/15 06:31:38;;;;;;;11.18;7.15;;;;;;;37.37;30.59;95192.91;4791537;29;20689;-70
2023/09/15 06:34:03;;;;;;;10.77;6.68;;;;;;;37.28;31.17;95203.41;4795480;29;20187;-70
2023/09/15 06:36:29;;;;;;;5.85;4.93;;;;;;;37.34;30.22;95197.22;4793348;29;20728;-70
2023/09/15 06:38:54;;;;;;;11.32;5.10;;;;;;;36.76;31.33;95182.28;4799670;29;20196;-71
2023/09/15 06:41:20;;;;;;;9.45;6.40;;;;;;;36.29;32.71;95195.25;4800172;29;20295;-71
2023/09/15 06:43:45;;;;;;;15.70;7.15;;;;;;;35.70;33.11;95190.22;4787938;29;20192;-71
2023/09/15 06:46:11;;;;;;;6.47;5.45;;;;;;;35.05;34.11;95197.47;4786100;29;20216;-71
2023/09/15 06:48:36;;;;;;;11.73;6.22;;;;;;;34.39;35.41;95203.75;4785988;29;20191;-71
2023/09/15 06:51:02;;;;;;;11.85;6.40;;;;;;;34.08;36.38;95188.09;4769446;29;20216;-70
2023/09/15 06:53:28;;;;;;;7.95;5.32;;;;;;;33.89;36.55;95191.56;4785833;29;20903;-70
2023/09/15 06:55:54;;;;;;;10.02;5.32;;;;;;;33.81;36.96;95192.50;4785710;29;20184;-71
2023/09/15 06:58:20;;;;;;;11.57;5.57;;;;;;;33.52;37.30;95179.19;4799728;29;20190;-70
2023/09/15 07:00:45;;;;;;;9.45;5.50;;;;;;;32.84;38.54;95181.91;4793604;29;20196;-69
2023/09/15 07:03:11;;;;;;;8.98;6.10;;;;;;;32.39;39.67;95182.84;4789890;29;20215;-69
2023/09/15 07:05:38;;;;;;;8.65;6.93;;;;;;;32.38;39.66;95178.50;4793190;29;20266;-69
2023/09/15 07:08:04;;;;;;;9.27;6.40;;;;;;;32.41;39.58;95188.75;4792910;29;20191;-70
2023/09/15 07:10:29;;;;;;;6.63;4.93;;;;;;;32.45;39.25;95181.47;4786040;29;20216;-70
2023/09/15 07:12:55;;;;;;;8.82;5.50;;;;;;;32.48;39.70;95178.06;4785581;29;20228;-70
2023/09/15 07:15:20;;;;;;;10.13;5.65;;;;;;;32.50;39.26;95173.06;4785385;29;20261;-70
2023/09/15 07:17:45;;;;;;;10.38;4.60;;;;;;;32.40;39.98;95176.25;4785485;29;20192;-70
2023/09/15 07:20:11;;;;;;;7.05;5.35;;;;;;;32.30;39.72;95179.44;4785621;29;20206;-70
2023/09/15 07:22:36;;;;;;;10.48;5.53;;;;;;;32.13;39.60;95176.88;4785610;29;20185;-69
2023/09/15 07:25:02;;;;;;;7.93;6.47;;;;;;;32.07;40.68;95173.59;4782893;29;20193;-70
2023/09/15 07:27:27;;;;;;;14.23;6.30;;;;;;;31.92;40.83;95157.09;4785122;29;20184;-69
2023/09/15 07:29:53;;;;;;;5.72;4.97;;;;;;;31.41;40.93;95164.69;4785837;29;20192;-70
2023/09/15 07:32:18;;;;;;;9.00;5.40;;;;;;;31.36;41.81;95154.00;4785428;29;20216;-69
2023/09/15 07:34:44;;;;;;;8.98;5.97;;;;;;;31.40;42.14;95172.03;4769094;30;20196;-70
2023/09/15 07:37:10;;;;;;;8.23;5.35;;;;;;;31.18;41.83;95168.91;4784934;29;20192;-69
2023/09/15 07:39:35;;;;;;;8.93;5.18;;;;;;;31.23;42.05;95176.84;4784881;29;20556;-69
2023/09/15 07:42:01;;;;;;;9.55;5.57;;;;;;;31.30;42.92;95172.50;4785462;30;20188;-70
2023/09/15 07:44:26;;;;;;;9.23;5.13;;;;;;;31.61;41.95;95176.66;4798839;29;20180;-69
2023/09/15 07:46:52;;;;;;;7.28;5.38;;;;;;;31.76;41.21;95171.38;4803130;29;20233;-69
2023/09/15 07:49:18;;;;;;;8.13;5.35;;;;;;;31.61;41.24;95182.91;4785546;29;20191;-69
2023/09/15 07:51:44;;;;;;;16.00;5.78;;;;;;;31.56;40.54;95169.50;4785032;29;20233;-69
2023/09/15 07:54:09;;;;;;;9.07;5.20;;;;;;;31.61;41.29;95173.94;4768986;30;20254;-69
2023/09/15 07:56:36;;;;;;;6.72;5.70;;;;;;;31.74;40.37;95167.44;4785193;29;20180;-69
2023/09/15 07:59:03;;;;;;;11.52;5.15;;;;;;;31.92;40.36;95166.06;4785205;29;20291;-69
2023/09/15 08:01:28;;;;;;;10.52;4.85;;;;;;;32.05;38.90;95167.69;4785146;29;20642;-69
2023/09/15 08:03:54;;;;;;;8.35;6.00;;;;;;;32.09;39.55;95170.50;4785721;29;20208;-69
2023/09/15 08:06:19;;;;;;;8.73;5.65;;;;;;;31.90;39.29;95164.84;4789023;29;20187;-69
2023/09/15 08:08:44;;;;;;;8.55;5.60;;;;;;;31.38;39.65;95160.72;4772813;30;20199;-69
2023/09/15 08:11:10;;;;;;;9.88;4.85;;;;;;;31.47;41.52;95166.06;4788803;29;20311;-69
2023/09/15 08:13:35;;;;;;;8.45;5.75;;;;;;;31.72;40.43;95159.59;4788539;29;20281;-69
2023/09/15 08:16:01;;;;;;;7.25;4.95;;;;;;;31.48;41.20;95164.94;4788689;30;20263;-69
2023/09/15 08:18:26;;;;;;;9.02;5.50;;;;;;;31.75;40.20;95161.63;4788523;29;20663;-69
2023/09/15 08:20:52;;;;;;;10.65;6.50;;;;;;;31.84;39.91;95159.59;4788404;29;20623;-69
2023/09/15 08:23:17;;;;;;;6.32;4.97;;;;;;;31.60;39.85;95164.16;4788523;29;20579;-69
2023/09/15 08:25:43;;;;;;;7.88;5.47;;;;;;;31.45;40.32;95146.56;4788561;29;20184;-69
2023/09/15 08:28:09;;;;;;;10.13;5.38;;;;;;;31.43;40.49;95148.81;4772389;30;20197;-69
2023/09/15 08:30:35;;;;;;;9.30;5.35;;;;;;;31.35;40.27;95146.97;4793070;29;20215;-69
2023/09/15 08:33:02;;;;;;;14.00;6.65;;;;;;;31.08;40.73;95143.69;4791543;29;20583;-69
2023/09/15 08:35:28;;;;;;;9.30;5.55;;;;;;;30.86;42.03;95141.31;4788328;29;20275;-69
2023/09/15 08:37:53;;;;;;;9.38;5.68;;;;;;;30.79;41.92;95146.47;4793949;29;20291;-69
2023/09/15 08:40:22;;;;;;;14.82;6.05;;;;;;;30.72;42.08;95144.28;4795463;29;20188;-69
2023/09/15 08:42:48;;;;;;;6.43;5.63;;;;;;;30.45;42.19;95146.66;4796063;29;20558;-69
2023/09/15 08:45:14;;;;;;;10.73;5.40;;;;;;;30.22;42.84;95143.47;4795443;29;20191;-69
2023/09/15 08:47:43;;;;;;;10.38;5.75;;;;;;;30.21;43.79;95134.50;4793913;29;20595;-69
2023/09/15 08:50:09;;;;;;;7.95;5.80;;;;;;;30.28;43.47;95139.41;4796860;29;20191;-69
2023/09/15 08:52:36;;;;;;;8.73;6.15;;;;;;;30.28;43.17;95129.34;4799372;29;20584;-69
2023/09/15 08:55:02;;;;;;;7.75;5.55;;;;;;;30.41;42.26;95138.41;4792035;29;20193;-69
2023/09/15 08:57:29;;;;;;;7.57;5.25;;;;;;;30.49;43.01;95125.88;4787895;29;20196;-69
2023/09/15 08:59:56;;;;;;;9.23;5.13;;;;;;;30.71;42.23;95120.13;4787801;29;20193;-69
2023/09/15 09:02:23;;;;;;;8.18;6.07;;;;;;;30.91;41.80;95123.97;4787725;29;20184;-69
2023/09/15 09:04:49;;;;;;;9.15;5.80;;;;;;;30.85;41.76;95123.41;4787861;29;20199;-69
2023/09/15 09:07:16;;;;;;;8.35;4.55;;;;;;;30.82;41.43;95117.81;4788963;29;20188;-69
2023/09/15 09:09:44;;;;;;;10.43;5.72;;;;;;;30.91;40.91;95124.78;4798754;29;20188;-69
2023/09/15 09:12:09;;;;;;;7.85;5.97;;;;;;;30.79;40.58;95100.22;4787473;29;20778;-69
2023/09/15 09:14:35;;;;;;;6.15;4.75;;;;;;;30.66;40.73;95112.19;4794407;29;20179;-69
2023/09/15 09:17:01;;;;;;;10.10;5.90;;;;;;;30.35;42.64;95104.41;4805490;29;20683;-70
2023/09/15 09:19:42;;;;;;;8.48;5.72;;;;;;;30.33;42.91;95115.59;4805670;29;20188;-69
2023/09/15 09:22:08;;;;;;;10.38;6.35;;;;;;;30.49;41.83;95118.50;4805152;29;20214;-69
2023/09/15 09:24:37;;;;;;;15.95;5.50;;;;;;;30.61;41.53;95112.41;4804864;29;20240;-69
2023/09/15 09:27:10;;;;;;;7.05;5.57;;;;;;;30.69;41.44;95130.56;4804905;29;20652;-69
2023/09/15 09:29:36;;;;;;;11.15;5.57;;;;;;;30.73;41.91;95126.84;4805080;29;20279;-69
2023/09/15 09:32:02;;;;;;;10.00;5.63;;;;;;;30.75;42.00;95126.50;4805187;29;20905;-69
2023/09/15 09:34:27;;;;;;;10.73;5.95;;;;;;;30.87;42.14;95121.16;4805484;29;20183;-69
2023/09/15 09:36:53;;;;;;;10.75;5.97;;;;;;;30.60;41.87;95113.50;4804985;29;20268;-69
2023/09/15 09:39:18;;;;;;;9.05;5.20;;;;;;;30.28;43.06;95099.47;4804918;29;20248;-69
2023/09/15 09:41:44;;;;;;;9.27;6.10;;;;;;;30.22;43.12;95124.44;4804964;29;20252;-69
2023/09/15 09:44:12;;;;;;;12.50;5.82;;;;;;;30.43;42.50;95119.03;4804788;29;20187;-69
2023/09/15 09:46:39;;;;;;;9.55;5.93;;;;;;;30.00;41.72;95120.09;4804946;29;20188;-69
2023/09/15 09:49:06;;;;;;;7.05;5.82;;;;;;;29.74;43.37;95113.94;4804544;29;20240;-69
2023/09/15 09:51:32;;;;;;;7.75;5.50;;;;;;;29.52;43.28;95106.81;4804363;29;20204;-69
2023/09/15 09:53:57;;;;;;;11.02;5.53;;;;;;;29.33;43.74;95107.16;4804392;29;20188;-69
2023/09/15 09:56:23;;;;;;;9.45;5.78;;;;;;;29.48;44.42;95106.69;4804332;29;20260;-69
2023/09/15 09:58:49;;;;;;;8.63;5.75;;;;;;;29.73;44.63;95107.72;4804040;29;20192;-69
2023/09/15 10:01:14;;;;;;;8.65;5.95;;;;;;;29.90;44.70;95104.13;4804400;29;20644;-69
2023/09/15 10:03:40;;;;;;;11.05;5.28;;;;;;;29.62;45.85;95104.56;4804267;29;20666;-69
2023/09/15 10:06:07;;;;;;;7.20;5.88;;;;;;;29.70;45.37;95110.28;4804214;29;20636;-69
2023/09/15 10:08:39;;;;;;;11.77;6.65;;;;;;;29.74;44.16;95105.81;4804129;29;20580;-69
2023/09/15 10:11:05;;;;;;;9.98;5.50;;;;;;;29.84;44.50;95097.31;4804276;29;20207;-69
2023/09/15 10:13:32;;;;;;;13.98;6.45;;;;;;;29.86;44.44;95097.75;4804379;29;20772;-69
2023/09/15 10:15:57;;;;;;;7.32;5.70;;;;;;;29.52;43.98;95104.91;4804579;29;20270;-69
2023/09/15 10:18:24;;;;;;;12.30;5.63;;;;;;;29.46;44.93;95081.00;4804404;29;20271;-69
2023/09/15 10:20:52;;;;;;;9.63;5.47;;;;;;;29.72;44.56;95108.03;4804353;29;20184;-69
2023/09/15 10:23:19;;;;;;;6.90;5.18;;;;;;;29.84;43.48;95092.63;4804383;29;20218;-69
2023/09/15 10:25:49;;;;;;;7.47;4.82;;;;;;;29.88;43.21;95092.78;4804075;29;20672;-69
2023/09/15 10:28:19;;;;;;;8.38;5.07;;;;;;;29.94;43.11;95094.22;4787389;29;20198;-69
2023/09/15 10:30:45;;;;;;;10.23;5.93;;;;;;;29.85;43.38;95088.00;4788509;29;20294;-69
2023/09/15 10:33:10;;;;;;;9.98;5.78;;;;;;;29.64;43.20;95088.75;4804287;29;20195;-69
2023/09/15 10:35:43;;;;;;;7.18;5.47;;;;;;;29.64;44.40;95090.66;4804067;29;20192;-69
2023/09/15 10:38:08;;;;;;;9.57;6.25;;;;;;;29.48;43.97;95070.63;4804287;29;20187;-69
2023/09/15 10:40:48;;;;;;;9.90;5.93;;;;;;;29.77;43.52;95078.78;4803947;29;20179;-69
2023/09/15 10:43:18;;;;;;;7.65;6.05;;;;;;;29.89;42.72;95081.59;4803785;29;20580;-69
2023/09/15 10:46:06;;;;;;;10.82;6.53;;;;;;;29.94;42.89;95083.34;4803896;29;20675;-69
2023/09/15 10:48:37;;;;;;;7.60;5.68;;;;;;;29.96;42.94;95071.06;4803666;29;20254;-69
2023/09/15 10:51:07;;;;;;;9.05;5.93;;;;;;;29.93;42.60;95071.66;4803666;29;20211;-69
2023/09/15 10:53:43;;;;;;;9.25;5.45;;;;;;;29.99;43.28;95059.53;4803822;29;20576;-69
2023/09/15 10:56:09;;;;;;;10.93;6.63;;;;;;;30.08;42.78;95067.63;4803736;29;20310;-69
2023/09/15 10:58:36;;;;;;;10.27;6.18;;;;;;;30.13;43.06;95064.72;4803687;29;20218;-69
2023/09/15 11:01:02;;;;;;;9.60;7.45;;;;;;;30.25;42.17;95067.53;4804133;29;20187;-69
2023/09/15 11:03:28;;;;;;;9.65;6.93;;;;;;;30.28;41.23;95061.41;4803704;29;20191;-69
2023/09/15 11:05:55;;;;;;;9.30;6.95;;;;;;;30.31;41.21;95052.63;4803552;29;20583;-69
2023/09/15 11:08:22;;;;;;;7.55;6.75;;;;;;;30.21;41.13;95035.91;4787357;29;20558;-69
2023/09/15 11:10:56;;;;;;;9.23;6.82;;;;;;;30.30;41.53;95061.09;4803589;29;20211;-69
2023/09/15 11:13:22;;;;;;;11.23;6.45;;;;;;;30.08;41.32;95036.97;4803229;29;20712;-69
2023/09/15 11:15:48;;;;;;;13.02;7.65;;;;;;;29.95;41.78;95015.16;4803383;29;20213;-69
2023/09/15 11:18:14;;;;;;;10.98;7.05;;;;;;;29.77;41.56;95045.41;4803413;29;20660;-69
2023/09/15 11:20:39;;;;;;;9.40;7.40;;;;;;;29.69;41.86;95041.63;4803393;29;20184;-68
2023/09/15 11:23:05;;;;;;;12.23;7.72;;;;;;;29.66;42.39;95041.50;4802438;29;20644;-68
2023/09/15 11:25:32;;;;;;;14.05;8.18;;;;;;;29.70;42.69;95042.41;4800138;29;20237;-69
2023/09/15 11:28:00;;;;;;;11.68;7.35;;;;;;;29.78;41.73;95047.00;4789364;29;20653;-68